Time;durP1;ratioP1;P1;durP2;ratioP2;P2;SDS_P1;SDS_P2;PMS_P1;PMS_P2;Temp;Humidity;BMP_temperature;BMP_pressure;BME280_temperature;BME280_humidity;BME280_pressure;Samples;Min_cycle;Max_cycle;Signal;HPM_P1;HPM_P2
2023/03/20 00:00:47;;;;;;;1.50;1.10;;;10.10;98.20;;;;;;5035672;28;20462;-75
2023/03/20 00:03:14;;;;;;;1.60;1.20;;;10.10;98.20;;;;;;5005694;28;20483;-75
2023/03/20 00:05:42;;;;;;;1.53;1.10;;;10.10;98.20;;;;;;5047422;28;20461;-75
2023/03/20 00:08:09;;;;;;;1.50;1.10;;;10.00;98.20;;;;;;5016127;28;20565;-75
2023/03/20 00:10:39;;;;;;;1.53;1.10;;;10.00;98.20;;;;;;5044562;28;20481;-75
2023/03/20 00:13:07;;;;;;;1.57;1.20;;;10.00;98.20;;;;;;5032326;28;21029;-75
2023/03/20 00:15:37;;;;;;;1.60;1.30;;;10.00;98.20;;;;;;5037847;28;20466;-75
2023/03/20 00:18:06;;;;;;;1.60;1.20;;;10.00;98.20;;;;;;5021928;28;21003;-75
2023/03/20 00:20:35;;;;;;;1.60;1.30;;;10.00;98.20;;;;;;5034332;28;20842;-75
2023/03/20 00:23:04;;;;;;;1.57;1.13;;;10.00;98.20;;;;;;5022955;28;20514;-75
2023/03/20 00:25:31;;;;;;;1.60;1.20;;;10.00;98.20;;;;;;5037873;28;20969;-75
2023/03/20 00:27:58;;;;;;;1.53;1.10;;;10.00;98.20;;;;;;5036097;28;20505;-75
2023/03/20 00:30:28;;;;;;;1.57;1.20;;;10.00;98.20;;;;;;5036693;28;20549;-75
2023/03/20 00:32:57;;;;;;;1.60;1.20;;;10.00;98.20;;;;;;5032073;28;20478;-75
2023/03/20 00:35:28;;;;;;;1.57;1.20;;;10.00;98.20;;;;;;5032006;28;20490;-75
2023/03/20 00:37:56;;;;;;;1.57;1.20;;;9.90;98.20;;;;;;5032270;28;20478;-75
2023/03/20 00:40:29;;;;;;;1.50;1.10;;;9.90;98.20;;;;;;5031868;28;20460;-75
2023/03/20 00:43:00;;;;;;;1.50;1.10;;;9.90;98.20;;;;;;5032360;28;20777;-75
2023/03/20 00:45:28;;;;;;;1.57;1.17;;;9.90;98.20;;;;;;5031187;28;20485;-75
2023/03/20 00:47:56;;;;;;;1.60;1.30;;;9.90;98.20;;;;;;5031679;28;20478;-75
2023/03/20 00:50:24;;;;;;;1.53;1.10;;;9.90;98.20;;;;;;5032024;28;20467;-75
2023/03/20 00:52:52;;;;;;;1.50;1.10;;;9.90;98.20;;;;;;5034417;28;20486;-75
2023/03/20 00:55:21;;;;;;;1.60;1.20;;;9.90;98.20;;;;;;5036488;28;20470;-75
2023/03/20 00:57:54;;;;;;;1.50;1.10;;;9.90;98.20;;;;;;5032945;28;20558;-75
2023/03/20 01:00:24;;;;;;;1.53;1.10;;;9.80;98.20;;;;;;5045739;28;20455;-75
2023/03/20 01:02:53;;;;;;;1.57;1.20;;;9.80;98.20;;;;;;5036830;28;20485;-75
2023/03/20 01:05:20;;;;;;;1.50;1.10;;;9.80;98.20;;;;;;5039779;28;20459;-75
2023/03/20 01:07:48;;;;;;;1.60;1.40;;;9.80;98.20;;;;;;5033671;28;20485;-75
2023/03/20 01:10:16;;;;;;;1.53;1.20;;;9.80;98.20;;;;;;5035741;28;20650;-75
2023/03/20 01:12:43;;;;;;;1.57;1.10;;;9.80;98.20;;;;;;5028289;28;20505;-75
2023/03/20 01:15:20;;;;;;;1.53;1.10;;;9.80;98.20;;;;;;5036743;28;20532;-75
2023/03/20 01:17:47;;;;;;;1.60;1.10;;;9.80;98.20;;;;;;5033375;28;20469;-76
2023/03/20 01:20:20;;;;;;;1.60;1.20;;;9.80;98.20;;;;;;5044713;23;20869;-74
2023/03/20 01:22:47;;;;;;;1.57;1.10;;;9.80;98.20;;;;;;5028868;28;20478;-74
2023/03/20 01:25:14;;;;;;;1.60;1.27;;;9.70;98.20;;;;;;5025035;28;20814;-74
2023/03/20 01:27:43;;;;;;;1.53;1.10;;;9.70;98.20;;;;;;5014501;28;20479;-73
2023/03/20 01:30:22;;;;;;;1.57;1.17;;;9.70;98.20;;;;;;5023225;28;20865;-74
2023/03/20 01:32:50;;;;;;;1.60;1.30;;;9.60;98.20;;;;;;5030887;28;20479;-74
2023/03/20 01:35:18;;;;;;;1.50;1.10;;;9.50;98.20;;;;;;5030061;28;20486;-74
2023/03/20 01:37:46;;;;;;;1.57;1.10;;;9.50;98.20;;;;;;5031207;28;21015;-74
2023/03/20 01:40:26;;;;;;;1.60;1.20;;;9.50;98.20;;;;;;5028607;28;20764;-74
2023/03/20 01:42:53;;;;;;;1.60;1.20;;;9.40;98.20;;;;;;5037333;28;20763;-73
2023/03/20 01:45:25;;;;;;;1.60;1.23;;;9.40;98.20;;;;;;5026988;28;20459;-74
2023/03/20 01:47:52;;;;;;;1.60;1.30;;;9.40;98.20;;;;;;5033641;28;20483;-74
2023/03/20 01:50:26;;;;;;;1.60;1.30;;;9.30;98.20;;;;;;5023580;28;21002;-74
2023/03/20 01:52:58;;;;;;;1.60;1.30;;;9.30;98.20;;;;;;5036691;28;20528;-73
2023/03/20 01:55:26;;;;;;;1.57;1.17;;;9.30;98.20;;;;;;5026479;28;20463;-74
2023/03/20 01:57:55;;;;;;;1.60;1.30;;;9.30;98.20;;;;;;5029718;28;20470;-74
2023/03/20 02:00:23;;;;;;;1.60;1.40;;;9.30;98.20;;;;;;5025567;28;20483;-74
2023/03/20 02:02:50;;;;;;;1.80;1.70;;;9.30;98.20;;;;;;5035306;28;20544;-74
2023/03/20 02:05:21;;;;;;;1.50;1.10;;;9.20;98.20;;;;;;5013155;28;20456;-74
2023/03/20 02:07:56;;;;;;;1.60;1.30;;;9.20;98.20;;;;;;5030417;28;20529;-73
2023/03/20 02:10:23;;;;;;;1.50;1.10;;;9.20;98.20;;;;;;5022843;28;20618;-74
2023/03/20 02:12:50;;;;;;;1.50;1.20;;;9.20;98.20;;;;;;5030212;28;20479;-74
2023/03/20 02:15:17;;;;;;;1.50;1.20;;;9.20;98.20;;;;;;5016142;28;20460;-74
2023/03/20 02:17:46;;;;;;;1.60;1.20;;;9.10;98.20;;;;;;5028346;28;21069;-74
2023/03/20 02:20:22;;;;;;;1.50;1.10;;;9.10;98.20;;;;;;5020149;28;20491;-73
2023/03/20 02:23:24;;;;;;;1.57;1.20;;;9.00;98.20;;;;;;5032268;28;20482;-74
2023/03/20 02:26:39;;;;;;;1.60;1.30;;;9.00;98.20;;;;;;5004922;28;20484;-73
2023/03/20 02:29:45;;;;;;;1.53;1.20;;;8.90;98.20;;;;;;5009437;28;20502;-73
2023/03/20 02:32:52;;;;;;;1.60;1.27;;;8.80;98.20;;;;;;5000851;28;20482;-74
2023/03/20 02:36:08;;;;;;;1.53;1.13;;;8.70;98.20;;;;;;5021499;28;20834;-74
2023/03/20 02:39:01;;;;;;;1.50;1.20;;;8.70;98.20;;;;;;5013840;28;20478;-74
2023/03/20 02:41:32;;;;;;;1.60;1.20;;;8.60;98.20;;;;;;5015850;28;20853;-73
2023/03/20 02:44:08;;;;;;;1.60;1.30;;;8.60;98.20;;;;;;5028859;28;20467;-73
2023/03/20 02:46:43;;;;;;;1.60;1.20;;;8.60;98.20;;;;;;5016550;28;21001;-74
2023/03/20 02:49:22;;;;;;;1.53;1.20;;;8.50;98.20;;;;;;5021271;28;20484;-73
2023/03/20 02:51:58;;;;;;;1.53;1.20;;;8.50;98.20;;;;;;5025290;28;20636;-73
2023/03/20 02:54:33;;;;;;;1.60;1.30;;;8.50;98.20;;;;;;5027629;28;20479;-74
2023/03/20 02:57:04;;;;;;;1.53;1.20;;;8.50;98.20;;;;;;5020270;28;20482;-74
2023/03/20 02:59:36;;;;;;;1.60;1.30;;;8.50;98.20;;;;;;5016285;28;21132;-74
2023/03/20 03:02:07;;;;;;;1.50;1.20;;;8.50;98.20;;;;;;5014049;28;20485;-74
2023/03/20 03:04:37;;;;;;;2.23;2.03;;;8.60;98.20;;;;;;5024452;28;20466;-74
2023/03/20 03:07:07;;;;;;;1.50;1.20;;;8.60;98.20;;;;;;5030579;28;20490;-74
2023/03/20 03:09:41;;;;;;;1.53;1.10;;;8.60;98.20;;;;;;5023940;28;20577;-74
2023/03/20 03:12:12;;;;;;;1.57;1.20;;;8.70;98.20;;;;;;5031693;28;20478;-74
2023/03/20 03:14:43;;;;;;;1.50;1.10;;;8.70;98.20;;;;;;5031041;28;20817;-74
2023/03/20 03:17:12;;;;;;;1.57;1.20;;;8.70;98.20;;;;;;5026605;28;21007;-74
2023/03/20 03:19:41;;;;;;;1.60;1.17;;;8.70;98.20;;;;;;5028258;28;20487;-73
2023/03/20 03:22:08;;;;;;;1.50;1.20;;;8.70;98.20;;;;;;5027548;28;21017;-74
2023/03/20 03:24:39;;;;;;;1.57;1.10;;;8.70;98.20;;;;;;5027489;28;20466;-74
2023/03/20 03:27:16;;;;;;;1.60;1.27;;;8.70;98.20;;;;;;5030351;28;20479;-74
2023/03/20 03:29:47;;;;;;;1.60;1.40;;;8.70;98.20;;;;;;5027844;28;20573;-74
2023/03/20 03:32:25;;;;;;;1.60;1.30;;;8.60;98.20;;;;;;5031704;28;20551;-74
2023/03/20 03:34:52;;;;;;;1.50;1.20;;;8.60;98.20;;;;;;5023118;28;20451;-74
2023/03/20 03:37:26;;;;;;;1.57;1.20;;;8.60;98.20;;;;;;5030056;28;20478;-74
2023/03/20 03:40:06;;;;;;;1.53;1.20;;;8.50;98.20;;;;;;5026950;28;20515;-73
2023/03/20 03:42:39;;;;;;;1.60;1.20;;;8.50;98.20;;;;;;5033710;28;20982;-74
2023/03/20 03:45:12;;;;;;;1.53;1.17;;;8.50;98.20;;;;;;5027359;28;20832;-74
2023/03/20 03:47:45;;;;;;;1.57;1.20;;;8.50;98.20;;;;;;5034546;28;20481;-74
2023/03/20 03:50:16;;;;;;;1.60;1.30;;;8.50;98.20;;;;;;5019510;28;20478;-74
2023/03/20 03:52:44;;;;;;;1.60;1.30;;;8.50;98.20;;;;;;5034852;28;20518;-74
2023/03/20 03:55:18;;;;;;;1.53;1.20;;;8.50;98.20;;;;;;5026986;28;20466;-74
2023/03/20 03:57:49;;;;;;;1.57;1.20;;;8.50;98.20;;;;;;5033665;28;20478;-74
2023/03/20 04:00:21;;;;;;;1.60;1.20;;;8.50;98.20;;;;;;5026005;28;20474;-74
2023/03/20 04:02:52;;;;;;;1.60;1.23;;;8.50;98.20;;;;;;5034729;28;20478;-74
2023/03/20 04:05:21;;;;;;;1.60;1.20;;;8.50;98.20;;;;;;5027095;28;20462;-74
2023/03/20 04:07:52;;;;;;;1.57;1.20;;;8.50;98.20;;;;;;5028487;28;20493;-74
2023/03/20 04:10:21;;;;;;;1.57;1.20;;;8.50;98.20;;;;;;5021949;28;20479;-73
2023/03/20 04:12:48;;;;;;;1.50;1.20;;;8.50;98.20;;;;;;5030532;28;20486;-74
2023/03/20 04:15:16;;;;;;;1.53;1.20;;;8.50;98.20;;;;;;5022120;28;20543;-74
2023/03/20 04:17:43;;;;;;;1.50;1.10;;;8.40;98.20;;;;;;5034116;28;20474;-74
2023/03/20 04:20:12;;;;;;;1.53;1.20;;;8.40;98.20;;;;;;5021418;28;20483;-74
2023/03/20 04:22:38;;;;;;;1.60;1.30;;;8.40;98.20;;;;;;5033857;28;20501;-74
2023/03/20 04:25:07;;;;;;;1.57;1.20;;;8.40;98.20;;;;;;5026415;28;20461;-74
2023/03/20 04:27:36;;;;;;;1.57;1.30;;;8.40;98.20;;;;;;5032721;28;21096;-74
2023/03/20 04:30:02;;;;;;;1.53;1.20;;;8.40;98.20;;;;;;5029560;28;20670;-74
2023/03/20 04:32:29;;;;;;;2.70;2.50;;;8.40;98.20;;;;;;5026102;28;20482;-74
2023/03/20 04:35:02;;;;;;;1.57;1.20;;;8.40;98.20;;;;;;5020926;28;20467;-74
2023/03/20 04:37:29;;;;;;;1.53;1.20;;;8.40;98.20;;;;;;5017678;28;20481;-74
2023/03/20 04:39:56;;;;;;;1.60;1.30;;;8.30;98.20;;;;;;5034472;28;20492;-74
2023/03/20 04:42:23;;;;;;;1.50;1.20;;;8.30;98.20;;;;;;5023418;28;20482;-73
2023/03/20 04:44:51;;;;;;;1.53;1.20;;;8.30;98.20;;;;;;5034388;28;20471;-74
2023/03/20 04:47:18;;;;;;;1.60;1.30;;;8.30;98.20;;;;;;5027910;28;20943;-73
2023/03/20 04:49:44;;;;;;;1.53;1.20;;;8.30;98.20;;;;;;5032931;28;20487;-73
2023/03/20 04:52:11;;;;;;;1.60;1.30;;;8.30;98.20;;;;;;5018217;28;20538;-74
2023/03/20 04:54:38;;;;;;;1.60;1.30;;;8.30;98.20;;;;;;5027240;28;20463;-74
2023/03/20 04:57:05;;;;;;;1.53;1.20;;;8.30;98.20;;;;;;5028417;28;20486;-75
2023/03/20 04:59:32;;;;;;;1.53;1.20;;;8.30;98.20;;;;;;5028503;28;20467;-74
2023/03/20 05:02:00;;;;;;;1.60;1.20;;;8.20;98.20;;;;;;5017241;28;20489;-74
2023/03/20 05:04:27;;;;;;;1.60;1.20;;;8.20;98.20;;;;;;5028857;28;20464;-74
2023/03/20 05:06:54;;;;;;;1.60;1.27;;;8.20;98.20;;;;;;5028549;28;20482;-74
2023/03/20 05:09:21;;;;;;;1.60;1.20;;;8.10;98.20;;;;;;5033131;28;20486;-74
2023/03/20 05:11:47;;;;;;;1.60;1.30;;;8.10;98.20;;;;;;5011457;28;20582;-74
2023/03/20 05:14:14;;;;;;;1.60;1.20;;;8.10;98.20;;;;;;5033716;28;20485;-74
2023/03/20 05:16:41;;;;;;;1.60;1.30;;;8.10;98.20;;;;;;5018566;28;20938;-74
2023/03/20 05:19:09;;;;;;;1.60;1.20;;;8.00;98.20;;;;;;5033567;28;20475;-74
2023/03/20 05:21:36;;;;;;;1.50;1.20;;;8.00;98.20;;;;;;5016767;28;20553;-74
2023/03/20 05:24:02;;;;;;;1.53;1.20;;;8.00;98.20;;;;;;5026790;28;20467;-73
2023/03/20 05:26:29;;;;;;;1.57;1.20;;;8.00;98.20;;;;;;5023157;28;20485;-74
2023/03/20 05:28:56;;;;;;;1.53;1.20;;;7.90;98.20;;;;;;5038770;28;20491;-74
2023/03/20 05:31:23;;;;;;;1.57;1.20;;;7.90;98.20;;;;;;5023273;28;20560;-73
2023/03/20 05:33:49;;;;;;;1.53;1.20;;;7.90;98.20;;;;;;5036250;28;20460;-74
2023/03/20 05:36:17;;;;;;;1.57;1.20;;;7.90;98.20;;;;;;5017742;28;20501;-74
2023/03/20 05:38:44;;;;;;;1.60;1.30;;;7.90;98.20;;;;;;5035440;28;20456;-74
2023/03/20 05:41:11;;;;;;;1.53;1.20;;;7.90;98.20;;;;;;5023285;28;20473;-74
2023/03/20 05:43:38;;;;;;;1.60;1.37;;;7.80;98.20;;;;;;5037833;28;20462;-74
2023/03/20 05:46:05;;;;;;;1.57;1.27;;;7.80;98.20;;;;;;5020211;28;20470;-73
2023/03/20 05:48:32;;;;;;;1.70;1.53;;;7.80;98.20;;;;;;5040313;28;20483;-73
2023/03/20 05:50:59;;;;;;;1.60;1.30;;;7.80;98.20;;;;;;5019999;28;20973;-73
2023/03/20 05:53:27;;;;;;;1.50;1.20;;;7.80;98.20;;;;;;5038713;28;20463;-74
2023/03/20 05:55:54;;;;;;;1.53;1.30;;;7.80;98.20;;;;;;5013203;28;20490;-73
2023/03/20 05:58:20;;;;;;;1.60;1.30;;;7.80;98.20;;;;;;5042738;28;20550;-73
2023/03/20 06:00:47;;;;;;;1.53;1.20;;;7.80;98.20;;;;;;5019827;28;20482;-73
2023/03/20 06:03:14;;;;;;;1.60;1.27;;;7.90;98.20;;;;;;5031149;28;20476;-73
2023/03/20 06:05:41;;;;;;;1.57;1.20;;;7.90;98.20;;;;;;5027905;28;20516;-74
2023/03/20 06:08:08;;;;;;;1.60;1.30;;;7.90;98.20;;;;;;5017542;28;20478;-73
2023/03/20 06:10:36;;;;;;;1.60;1.30;;;7.90;98.20;;;;;;5024579;28;20495;-73
2023/03/20 06:13:03;;;;;;;1.50;1.23;;;7.90;98.20;;;;;;5016922;28;20490;-73
2023/03/20 06:15:29;;;;;;;1.57;1.20;;;7.90;98.20;;;;;;5029991;28;20459;-73
2023/03/20 06:17:57;;;;;;;1.60;1.30;;;7.90;98.20;;;;;;5031335;28;20780;-74
2023/03/20 06:20:24;;;;;;;1.53;1.20;;;8.00;98.20;;;;;;5034650;28;20510;-74
2023/03/20 06:22:51;;;;;;;1.50;1.20;;;8.00;98.20;;;;;;5034651;28;20481;-73
2023/03/20 06:25:19;;;;;;;1.50;1.20;;;8.00;98.20;;;;;;5028605;28;20839;-73
2023/03/20 06:27:47;;;;;;;1.57;1.30;;;8.00;98.20;;;;;;5028086;28;20564;-73
2023/03/20 06:30:15;;;;;;;1.50;1.20;;;8.00;98.20;;;;;;5028937;28;20502;-73
2023/03/20 06:32:42;;;;;;;1.57;1.20;;;8.10;98.20;;;;;;5028920;28;20841;-74
2023/03/20 06:35:09;;;;;;;1.50;1.20;;;8.10;98.20;;;;;;5023099;28;20463;-74
2023/03/20 06:37:36;;;;;;;1.60;1.23;;;8.10;98.20;;;;;;5017547;28;20494;-74
2023/03/20 06:40:04;;;;;;;1.60;1.30;;;8.10;98.20;;;;;;5017618;28;20645;-74
2023/03/20 06:42:31;;;;;;;1.57;1.20;;;8.20;98.20;;;;;;5012522;28;20565;-75
2023/03/20 06:44:59;;;;;;;1.60;1.33;;;8.30;98.20;;;;;;5028197;28;20517;-76
2023/03/20 06:47:25;;;;;;;1.60;1.20;;;8.30;98.20;;;;;;5027704;28;20952;-75
2023/03/20 06:49:52;;;;;;;1.60;1.30;;;8.30;98.20;;;;;;5024382;28;20491;-74
2023/03/20 06:52:21;;;;;;;1.53;1.20;;;8.30;98.20;;;;;;5028459;28;21026;-75
2023/03/20 06:54:49;;;;;;;1.60;1.37;;;8.30;98.20;;;;;;5028729;28;20490;-74
2023/03/20 06:57:17;;;;;;;1.70;1.60;;;8.30;98.20;;;;;;5024448;28;20491;-74
2023/03/20 06:59:44;;;;;;;1.60;1.30;;;8.30;98.20;;;;;;5014688;28;20910;-74
2023/03/20 07:02:12;;;;;;;1.53;1.20;;;8.40;98.20;;;;;;5026577;28;20684;-74
2023/03/20 07:04:39;;;;;;;1.57;1.20;;;8.40;98.20;;;;;;5024910;28;20805;-75
2023/03/20 07:07:06;;;;;;;1.57;1.20;;;8.50;98.20;;;;;;5017418;28;20518;-75
2023/03/20 07:09:33;;;;;;;1.50;1.20;;;8.60;98.20;;;;;;5012512;28;20813;-76
2023/03/20 07:12:01;;;;;;;1.57;1.20;;;8.60;98.20;;;;;;5020747;28;21006;-76
2023/03/20 07:14:27;;;;;;;1.50;1.20;;;8.70;98.20;;;;;;5019644;28;20472;-76
2023/03/20 07:16:55;;;;;;;1.53;1.20;;;8.70;98.20;;;;;;5015930;28;20755;-74
2023/03/20 07:19:23;;;;;;;1.53;1.20;;;8.80;98.20;;;;;;5018815;28;21210;-74
2023/03/20 07:21:51;;;;;;;1.60;1.20;;;8.80;98.20;;;;;;5014676;28;20574;-74
2023/03/20 07:24:18;;;;;;;1.60;1.20;;;8.90;98.20;;;;;;5014216;28;20469;-74
2023/03/20 07:26:45;;;;;;;1.57;1.23;;;9.00;98.20;;;;;;5012609;28;20482;-74
2023/03/20 07:29:12;;;;;;;1.60;1.20;;;9.00;98.20;;;;;;5015277;28;20550;-74
2023/03/20 07:31:39;;;;;;;1.60;1.20;;;9.00;98.20;;;;;;4994001;28;20484;-73
2023/03/20 07:34:06;;;;;;;1.60;1.30;;;9.10;98.20;;;;;;5017042;28;20463;-73
2023/03/20 07:36:34;;;;;;;1.50;1.10;;;9.10;98.20;;;;;;5021917;28;20487;-73
2023/03/20 07:39:01;;;;;;;1.50;1.10;;;9.10;98.20;;;;;;5027731;28;20467;-73
2023/03/20 07:41:28;;;;;;;1.50;1.10;;;9.10;98.20;;;;;;5020516;28;20485;-73
2023/03/20 07:43:55;;;;;;;1.60;1.30;;;9.10;98.20;;;;;;5034322;28;20463;-74
2023/03/20 07:46:21;;;;;;;1.60;1.20;;;9.20;98.20;;;;;;5020141;28;20882;-73
2023/03/20 07:48:48;;;;;;;1.50;1.20;;;9.30;98.20;;;;;;5031900;28;20505;-74
2023/03/20 07:51:15;;;;;;;1.60;1.20;;;9.30;98.20;;;;;;5019573;28;20482;-73
2023/03/20 07:53:43;;;;;;;1.57;1.20;;;9.40;98.20;;;;;;5029066;28;20464;-74
2023/03/20 07:56:10;;;;;;;1.50;1.10;;;9.40;98.20;;;;;;5013285;28;21069;-73
2023/03/20 07:58:37;;;;;;;1.53;1.10;;;9.50;98.20;;;;;;5033947;28;20464;-73
2023/03/20 08:01:04;;;;;;;1.60;1.20;;;9.50;98.20;;;;;;5016299;28;20487;-73
2023/03/20 08:03:31;;;;;;;1.60;1.20;;;9.60;98.20;;;;;;5034171;28;20464;-74
2023/03/20 08:05:58;;;;;;;1.50;1.10;;;9.60;98.20;;;;;;5019592;28;20466;-77
2023/03/20 08:08:25;;;;;;;1.57;1.20;;;9.70;98.20;;;;;;5031343;28;20468;-75
2023/03/20 08:10:53;;;;;;;1.60;1.20;;;9.80;98.20;;;;;;5008739;28;20490;-75
2023/03/20 08:13:19;;;;;;;1.73;1.47;;;9.90;98.20;;;;;;5031352;28;20822;-75
2023/03/20 08:15:47;;;;;;;1.60;1.20;;;10.00;98.20;;;;;;5018617;28;20501;-74
2023/03/20 08:18:14;;;;;;;1.60;1.20;;;10.00;98.20;;;;;;5010721;28;20537;-73
2023/03/20 08:20:40;;;;;;;1.53;1.10;;;10.10;98.20;;;;;;5020782;28;20511;-76
2023/03/20 08:23:07;;;;;;;1.53;1.10;;;10.20;98.20;;;;;;5031270;28;20494;-73
2023/03/20 08:25:34;;;;;;;1.50;1.10;;;10.30;98.20;;;;;;5026512;28;20747;-75
2023/03/20 08:28:02;;;;;;;1.60;1.20;;;10.30;98.20;;;;;;5030946;28;20482;-75
2023/03/20 08:30:30;;;;;;;1.50;1.10;;;10.40;98.20;;;;;;5025975;28;20649;-75
2023/03/20 08:32:58;;;;;;;1.53;1.10;;;10.50;98.20;;;;;;5028722;28;20931;-74
2023/03/20 08:35:25;;;;;;;1.53;1.10;;;10.50;98.20;;;;;;5023174;28;20499;-76
2023/03/20 08:37:51;;;;;;;1.60;1.20;;;10.60;98.20;;;;;;5031208;28;20478;-75
2023/03/20 08:40:18;;;;;;;1.60;1.10;;;10.70;98.20;;;;;;5027020;28;20479;-73
2023/03/20 08:42:45;;;;;;;4.80;3.43;;;10.70;98.20;;;;;;5028493;28;20482;-74
2023/03/20 08:45:13;;;;;;;1.57;1.10;;;10.80;98.20;;;;;;5022187;28;20459;-75
2023/03/20 08:47:40;;;;;;;1.57;1.20;;;10.80;98.20;;;;;;5025582;28;20490;-76
2023/03/20 08:50:08;;;;;;;1.53;1.00;;;10.90;98.20;;;;;;5022290;28;20499;-75
2023/03/20 08:52:35;;;;;;;1.50;1.00;;;10.90;98.20;;;;;;5030147;28;20474;-74
2023/03/20 08:55:01;;;;;;;1.60;1.10;;;10.90;98.20;;;;;;5020410;28;20470;-76
2023/03/20 08:57:28;;;;;;;1.60;1.10;;;10.90;98.20;;;;;;5019292;28;20837;-76
2023/03/20 08:59:55;;;;;;;1.50;1.10;;;10.90;98.20;;;;;;5024362;28;20479;-75
2023/03/20 09:02:23;;;;;;;1.50;1.10;;;11.00;98.20;;;;;;5013686;28;20490;-75
2023/03/20 09:04:50;;;;;;;1.57;1.10;;;11.00;98.20;;;;;;5018676;28;20460;-74
2023/03/20 09:07:17;;;;;;;1.50;1.10;;;11.10;98.20;;;;;;5017753;28;20984;-75
2023/03/20 09:09:44;;;;;;;1.50;1.10;;;11.20;98.20;;;;;;5026496;28;20903;-77
2023/03/20 09:12:11;;;;;;;1.60;1.10;;;11.20;98.20;;;;;;5022423;28;20478;-75
2023/03/20 09:14:38;;;;;;;1.53;1.10;;;11.20;98.20;;;;;;5034216;28;20455;-76
2023/03/20 09:17:04;;;;;;;1.60;1.20;;;11.20;98.20;;;;;;5016537;28;20501;-76
2023/03/20 09:19:33;;;;;;;1.53;1.10;;;11.10;98.20;;;;;;5035807;28;21092;-75
2023/03/20 09:22:00;;;;;;;1.53;1.00;;;11.10;98.20;;;;;;5025006;28;20483;-77
2023/03/20 09:24:28;;;;;;;1.50;1.00;;;11.10;98.20;;;;;;5031497;28;20452;-77
2023/03/20 09:26:54;;;;;;;1.50;1.10;;;11.10;98.20;;;;;;5027917;28;20833;-75
2023/03/20 09:29:21;;;;;;;1.60;1.13;;;11.10;98.20;;;;;;5027352;28;20482;-75
2023/03/20 09:31:48;;;;;;;1.50;1.07;;;11.00;98.20;;;;;;5010991;28;20856;-77
2023/03/20 09:34:18;;;;;;;1.57;1.20;;;11.10;98.20;;;;;;5038392;28;20544;-77
2023/03/20 09:36:46;;;;;;;1.50;1.10;;;11.10;98.20;;;;;;5027191;28;20878;-76
2023/03/20 09:39:13;;;;;;;1.53;1.00;;;11.20;98.20;;;;;;5033465;28;20447;-75
2023/03/20 09:41:40;;;;;;;1.57;1.10;;;11.30;98.20;;;;;;5022939;28;20473;-76
2023/03/20 09:44:14;;;;;;;1.60;1.13;;;11.30;98.20;;;;;;5034624;28;20468;-74
2023/03/20 09:47:00;;;;;;;1.60;1.13;;;11.30;98.20;;;;;;5025174;28;20477;-74
2023/03/20 09:49:40;;;;;;;1.57;1.10;;;11.30;98.20;;;;;;5023294;28;20484;-74
2023/03/20 09:52:21;;;;;;;1.50;1.10;;;11.30;98.20;;;;;;5025115;28;20492;-74
2023/03/20 09:54:50;;;;;;;1.60;1.17;;;11.20;98.20;;;;;;5024614;28;20567;-75
2023/03/20 09:57:21;;;;;;;2.17;1.97;;;11.30;98.20;;;;;;5026136;28;20470;-75
2023/03/20 09:59:50;;;;;;;1.60;1.20;;;11.40;98.20;;;;;;5019460;28;20487;-74
2023/03/20 10:02:23;;;;;;;1.60;1.20;;;11.50;98.20;;;;;;5024437;28;20490;-75
2023/03/20 10:04:53;;;;;;;1.60;1.27;;;11.50;98.20;;;;;;5024074;28;20555;-76
2023/03/20 10:07:21;;;;;;;1.50;1.00;;;11.50;98.00;;;;;;5024525;28;20482;-73
2023/03/20 10:09:48;;;;;;;1.53;1.00;;;11.50;96.70;;;;;;5023020;28;20887;-73
2023/03/20 10:12:28;;;;;;;1.50;1.00;;;11.50;96.30;;;;;;5027030;28;20541;-73
2023/03/20 10:15:03;;;;;;;1.50;1.00;;;11.50;97.30;;;;;;5028790;28;20467;-73
2023/03/20 10:17:44;;;;;;;1.57;1.10;;;11.50;97.90;;;;;;5023748;28;20478;-72
2023/03/20 10:20:19;;;;;;;1.50;1.10;;;11.50;97.10;;;;;;5020929;28;20899;-73
2023/03/20 10:22:52;;;;;;;1.57;1.00;;;11.50;97.20;;;;;;5028576;28;20750;-73
2023/03/20 10:25:24;;;;;;;1.50;1.13;;;11.40;97.50;;;;;;5028878;28;20459;-73
2023/03/20 10:27:56;;;;;;;1.57;1.10;;;11.50;98.00;;;;;;5027773;28;20568;-73
2023/03/20 10:30:34;;;;;;;1.50;1.00;;;11.40;98.00;;;;;;5027955;28;20884;-73
2023/03/20 10:33:13;;;;;;;1.53;1.10;;;11.40;98.20;;;;;;5031113;28;20493;-73
2023/03/20 10:35:45;;;;;;;2.13;1.93;;;11.40;98.20;;;;;;5024949;28;20479;-73
2023/03/20 10:38:32;;;;;;;1.60;1.10;;;11.40;98.10;;;;;;5005609;28;20484;-73
2023/03/20 10:40:59;;;;;;;1.50;1.00;;;11.50;98.20;;;;;;5011069;28;20475;-73
2023/03/20 10:43:31;;;;;;;1.50;1.07;;;11.60;97.90;;;;;;5037054;28;20472;-73
2023/03/20 10:46:02;;;;;;;1.57;1.10;;;11.70;97.10;;;;;;5018789;28;20550;-73
2023/03/20 10:48:33;;;;;;;1.50;1.10;;;11.60;95.60;;;;;;5032336;28;20470;-73
2023/03/20 10:51:02;;;;;;;1.50;1.10;;;11.60;96.10;;;;;;5016806;28;20523;-73
2023/03/20 10:53:36;;;;;;;1.50;1.10;;;11.60;96.40;;;;;;5030929;28;20470;-73
2023/03/20 10:56:07;;;;;;;1.50;1.13;;;11.60;95.30;;;;;;5011801;28;20464;-73
2023/03/20 10:58:38;;;;;;;1.50;1.10;;;11.60;95.70;;;;;;5036950;28;20463;-72
2023/03/20 11:01:05;;;;;;;1.53;1.10;;;11.60;95.40;;;;;;5014836;28;20479;-74
2023/03/20 11:03:35;;;;;;;1.50;1.00;;;11.50;95.20;;;;;;5024802;28;20460;-72
2023/03/20 11:06:05;;;;;;;1.50;1.10;;;11.50;95.70;;;;;;5008813;28;20475;-74
2023/03/20 11:08:36;;;;;;;1.50;1.13;;;11.50;96.80;;;;;;5037790;28;20480;-73
2023/03/20 11:11:04;;;;;;;1.50;1.20;;;11.50;96.40;;;;;;5013086;28;20494;-74
2023/03/20 11:13:34;;;;;;;1.50;1.10;;;11.50;96.90;;;;;;5037634;28;20987;-74
2023/03/20 11:16:11;;;;;;;1.50;1.10;;;11.40;95.80;;;;;;5016030;28;20557;-76
2023/03/20 11:18:40;;;;;;;1.50;1.00;;;11.30;96.40;;;;;;5029981;28;20491;-75
2023/03/20 11:21:14;;;;;;;1.50;1.00;;;11.20;96.60;;;;;;5010933;28;20487;-73
2023/03/20 11:23:42;;;;;;;1.50;1.20;;;11.20;97.90;;;;;;5034856;28;20970;-73
2023/03/20 11:26:15;;;;;;;1.50;1.10;;;11.20;97.40;;;;;;5014711;28;20482;-73
2023/03/20 11:28:47;;;;;;;1.50;1.00;;;11.10;96.10;;;;;;5037442;28;20522;-74
2023/03/20 11:31:19;;;;;;;1.50;1.10;;;11.10;96.90;;;;;;5013704;28;20517;-73
2023/03/20 11:33:51;;;;;;;1.50;1.10;;;11.10;97.70;;;;;;5026937;28;20491;-73
2023/03/20 11:36:25;;;;;;;1.50;1.20;;;11.20;97.80;;;;;;5015204;28;20481;-73
2023/03/20 11:38:57;;;;;;;1.50;1.00;;;11.10;98.20;;;;;;5029908;28;20459;-73
2023/03/20 11:41:26;;;;;;;1.50;1.20;;;11.20;98.20;;;;;;5013751;28;20849;-73
2023/03/20 11:43:53;;;;;;;1.50;1.00;;;11.20;98.20;;;;;;5032769;28;20475;-73
2023/03/20 11:46:22;;;;;;;1.50;1.10;;;11.10;98.20;;;;;;5014337;28;20474;-74
2023/03/20 11:49:03;;;;;;;1.50;1.00;;;10.90;98.20;;;;;;5032915;28;20459;-73
2023/03/20 11:51:31;;;;;;;1.57;1.20;;;10.70;98.20;;;;;;5016382;28;21207;-73
2023/03/20 11:54:02;;;;;;;1.57;1.20;;;10.70;98.20;;;;;;5031629;28;20463;-73
2023/03/20 11:56:31;;;;;;;1.50;1.10;;;10.70;98.20;;;;;;5021093;28;20483;-73
2023/03/20 11:59:01;;;;;;;1.50;1.10;;;10.70;98.20;;;;;;5024336;28;20467;-73
2023/03/20 12:01:36;;;;;;;1.50;1.10;;;10.80;98.20;;;;;;5013950;28;20486;-74
2023/03/20 12:04:05;;;;;;;1.50;1.10;;;10.90;98.20;;;;;;5025631;28;20490;-75
2023/03/20 12:06:42;;;;;;;1.50;1.10;;;10.90;98.20;;;;;;5008725;28;20483;-72
2023/03/20 12:09:23;;;;;;;1.57;1.10;;;11.00;98.20;;;;;;5020923;28;20463;-73
2023/03/20 12:11:54;;;;;;;1.50;1.00;;;11.00;98.20;;;;;;5024054;28;21180;-73
2023/03/20 12:14:30;;;;;;;1.50;1.10;;;11.10;98.20;;;;;;5026618;28;20550;-73
2023/03/20 12:17:14;;;;;;;1.50;1.00;;;11.10;98.20;;;;;;5025085;28;20478;-73
2023/03/20 12:19:43;;;;;;;1.50;1.00;;;11.20;98.20;;;;;;5028929;28;20495;-74
2023/03/20 12:22:20;;;;;;;1.50;1.10;;;11.20;98.20;;;;;;5009496;28;21015;-74
2023/03/20 12:24:54;;;;;;;1.50;1.10;;;11.20;98.20;;;;;;5022332;28;20464;-75
2023/03/20 12:27:25;;;;;;;1.50;1.00;;;11.20;98.20;;;;;;5029408;28;20548;-74
2023/03/20 12:29:58;;;;;;;1.50;1.00;;;11.20;98.20;;;;;;5026645;28;21016;-72
2023/03/20 12:32:30;;;;;;;1.53;1.10;;;11.30;98.20;;;;;;5011466;28;21043;-72
2023/03/20 12:35:02;;;;;;;1.50;1.10;;;11.30;98.20;;;;;;5027905;28;20463;-72
2023/03/20 12:37:30;;;;;;;1.50;1.00;;;11.30;98.20;;;;;;5032306;28;20497;-73
2023/03/20 12:40:00;;;;;;;1.50;1.00;;;11.30;98.20;;;;;;5027939;28;20484;-72
2023/03/20 12:42:40;;;;;;;1.50;1.00;;;11.30;98.20;;;;;;5005631;28;21347;-73
2023/03/20 12:45:11;;;;;;;1.50;1.00;;;11.30;98.20;;;;;;5031252;28;20463;-72
2023/03/20 12:47:53;;;;;;;1.50;1.10;;;11.40;98.20;;;;;;5017307;28;20483;-72
2023/03/20 12:50:28;;;;;;;1.50;1.10;;;11.50;98.20;;;;;;5032483;28;20503;-72
2023/03/20 12:53:23;;;;;;;1.57;1.10;;;11.50;98.20;;;;;;5015897;28;20498;-74
2023/03/20 12:56:00;;;;;;;1.50;1.10;;;11.50;98.20;;;;;;5025480;28;20462;-72
2023/03/20 12:58:39;;;;;;;1.50;1.17;;;11.50;98.20;;;;;;5022715;28;20976;-72
2023/03/20 13:01:12;;;;;;;1.50;1.10;;;11.60;98.20;;;;;;5018877;28;20495;-73
2023/03/20 13:04:03;;;;;;;1.50;1.00;;;11.70;98.20;;;;;;5044806;28;20459;-73
2023/03/20 13:06:40;;;;;;;1.50;1.10;;;11.70;98.20;;;;;;5017739;28;20477;-73
2023/03/20 13:09:50;;;;;;;1.50;1.10;;;11.70;98.20;;;;;;5042798;28;20840;-73